Terminal Aerodrome Forecast
Issued by NWS

Home | Current Version | Previous Version | Text Only | Print | Product List | Glossary On
Versions: 1 2 3 4 5 6 7 8 9 10 11 12 13 14 15 16 17 18 19 20 21 22 23 24 25 26 27 28 29 30 31 32 33 34 35 36 37 38 39 40 41 42
000
FTUS43 KGRB 231129
TAFATW
TAF
KATW 231129Z 2312/2412 32005KT 1/2SM -DZ FG OVC003
     FM231300 32003KT 3SM BR SCT003 OVC012
      TEMPO 2313/2317 1SM -DZ BR OVC003
     FM231700 31003KT 4SM BR OVC008
     FM240400 00000KT 2SM BR OVC005=

USA.gov is the U.S. government's official web portal to all federal, state and local government web resources and services.